Time;durP1;ratioP1;P1;durP2;ratioP2;P2;SDS_P1;SDS_P2;PMS_P1;PMS_P2;Temp;Humidity;BMP_temperature;BMP_pressure;BME280_temperature;BME280_humidity;BME280_pressure;Samples;Min_cycle;Max_cycle;Signal;HPM_P1;HPM_P2
2022/05/22 00:01:41;;;;;;;543.83;518.65;;;14.60;99.90;;;;;;5032951;28;20198;-69
2022/05/22 00:04:10;;;;;;;530.38;506.02;;;14.60;99.90;;;;;;5033258;28;20175;-69
2022/05/22 00:06:36;;;;;;;575.22;547.47;;;14.60;99.90;;;;;;5047653;28;20194;-68
2022/05/22 00:09:02;;;;;;;438.92;418.90;;;14.50;99.90;;;;;;5031557;28;20194;-68
2022/05/22 00:11:28;;;;;;;288.73;276.73;;;14.50;99.90;;;;;;5048291;28;20209;-67
2022/05/22 00:13:53;;;;;;;295.40;282.45;;;14.50;99.90;;;;;;5031891;28;20198;-68
2022/05/22 00:16:37;;;;;;;303.00;290.40;;;14.50;99.90;;;;;;5031651;28;20187;-68
2022/05/22 00:19:11;;;;;;;313.67;300.02;;;14.50;99.90;;;;;;5046269;28;20171;-68
2022/05/22 00:21:37;;;;;;;315.27;302.40;;;14.40;99.90;;;;;;5033228;28;20214;-68
2022/05/22 00:24:04;;;;;;;282.85;271.20;;;14.30;99.90;;;;;;5065048;28;20193;-67
2022/05/22 00:26:30;;;;;;;314.52;301.52;;;14.20;99.90;;;;;;5040828;28;20619;-67
2022/05/22 00:28:56;;;;;;;340.73;326.75;;;14.20;99.90;;;;;;5043934;28;20199;-68
2022/05/22 00:31:22;;;;;;;311.10;297.90;;;14.20;99.90;;;;;;5032602;28;20341;-68
2022/05/22 00:33:47;;;;;;;262.77;251.38;;;14.20;99.90;;;;;;5032715;28;20185;-68
2022/05/22 00:36:13;;;;;;;247.40;236.40;;;14.20;99.90;;;;;;5052120;28;20533;-67
2022/05/22 00:38:39;;;;;;;302.88;289.60;;;14.10;99.90;;;;;;5043670;28;20661;-67
2022/05/22 00:41:07;;;;;;;355.77;340.17;;;14.10;99.90;;;;;;5035174;28;20252;-67
2022/05/22 00:43:34;;;;;;;347.42;332.75;;;14.00;99.90;;;;;;5035037;28;20709;-67
2022/05/22 00:46:04;;;;;;;302.77;289.73;;;14.00;99.90;;;;;;5036545;28;20183;-67
2022/05/22 00:48:31;;;;;;;292.77;279.80;;;13.90;99.90;;;;;;5046358;28;20631;-67
2022/05/22 00:51:05;;;;;;;187.25;178.93;;;13.90;99.90;;;;;;5056329;28;20182;-67
2022/05/22 00:53:33;;;;;;;164.02;156.65;;;13.90;99.90;;;;;;5071999;28;20181;-67
2022/05/22 00:56:05;;;;;;;164.85;157.15;;;13.90;99.90;;;;;;5041727;28;20236;-68
2022/05/22 00:58:31;;;;;;;154.63;147.13;;;13.90;99.90;;;;;;5036643;28;20201;-67
2022/05/22 01:00:57;;;;;;;150.70;143.38;;;13.90;99.90;;;;;;5068341;28;20219;-68
2022/05/22 01:03:28;;;;;;;103.18;98.55;;;13.90;99.90;;;;;;5034828;28;20214;-67
2022/05/22 01:06:12;;;;;;;102.05;96.95;;;13.80;99.90;;;;;;5036115;28;20183;-67
2022/05/22 01:08:39;;;;;;;92.53;87.88;;;13.90;99.90;;;;;;5035068;28;20554;-68
2022/05/22 01:11:15;;;;;;;91.28;87.25;;;13.80;99.90;;;;;;5048079;28;20246;-67
2022/05/22 01:13:52;;;;;;;91.65;87.40;;;13.70;99.90;;;;;;5041289;28;20178;-67
2022/05/22 01:16:19;;;;;;;92.05;87.28;;;13.70;99.90;;;;;;5045081;28;20193;-67
2022/05/22 01:18:50;;;;;;;90.50;85.35;;;13.60;99.90;;;;;;5043646;28;20691;-68
2022/05/22 01:21:23;;;;;;;89.22;84.65;;;13.60;99.90;;;;;;5034856;28;20667;-68
2022/05/22 01:23:50;;;;;;;86.50;82.43;;;13.60;99.90;;;;;;5034341;28;20199;-68
2022/05/22 01:26:16;;;;;;;88.32;83.78;;;13.50;99.90;;;;;;5035885;28;20175;-69
2022/05/22 01:28:42;;;;;;;87.35;83.35;;;13.50;99.90;;;;;;5035856;28;20189;-68
2022/05/22 01:31:09;;;;;;;87.90;83.90;;;13.50;99.90;;;;;;5035359;28;20275;-68
2022/05/22 01:33:36;;;;;;;88.15;83.80;;;13.50;99.90;;;;;;5043699;28;20186;-67
2022/05/22 01:36:04;;;;;;;85.60;81.45;;;13.50;99.90;;;;;;5049877;28;20183;-68
2022/05/22 01:38:30;;;;;;;89.43;85.03;;;13.50;99.90;;;;;;5034162;28;20278;-67
2022/05/22 01:40:56;;;;;;;90.40;86.03;;;13.40;99.90;;;;;;5044934;28;20571;-69
2022/05/22 01:43:22;;;;;;;93.03;88.25;;;13.30;99.90;;;;;;5043852;28;20193;-68
2022/05/22 01:45:48;;;;;;;93.53;88.55;;;13.30;99.90;;;;;;5051156;28;20220;-67
2022/05/22 01:48:14;;;;;;;87.82;83.45;;;13.30;99.90;;;;;;5033856;28;20580;-68
2022/05/22 01:50:41;;;;;;;95.00;90.35;;;13.30;99.90;;;;;;5042154;28;20186;-67
2022/05/22 01:53:07;;;;;;;93.88;88.97;;;13.30;99.90;;;;;;5053522;28;20189;-68
2022/05/22 01:55:33;;;;;;;92.85;88.20;;;13.30;99.90;;;;;;5034855;28;20183;-68
2022/05/22 01:57:59;;;;;;;88.72;84.10;;;13.20;99.90;;;;;;5047504;28;20185;-67
2022/05/22 02:00:26;;;;;;;97.38;92.25;;;13.30;99.90;;;;;;5044321;28;20565;-70
2022/05/22 02:02:56;;;;;;;97.82;92.95;;;13.20;99.90;;;;;;5035255;28;20202;-68
2022/05/22 02:05:22;;;;;;;102.05;96.45;;;13.20;99.90;;;;;;5039824;28;20182;-69
2022/05/22 02:10:34;;;;;;;102.03;96.97;;;13.10;99.90;;;;;;5046378;28;20209;-67
2022/05/22 02:13:00;;;;;;;106.32;101.00;;;13.00;99.90;;;;;;5073916;28;20208;-70
2022/05/22 02:15:27;;;;;;;103.15;97.88;;;13.00;99.90;;;;;;5038426;28;20198;-71
2022/05/22 02:17:53;;;;;;;99.47;94.70;;;13.00;99.90;;;;;;5033294;28;20673;-68
2022/05/22 02:20:23;;;;;;;100.15;95.15;;;13.00;99.90;;;;;;5034630;28;20194;-68
2022/05/22 02:22:51;;;;;;;100.38;95.43;;;12.90;99.90;;;;;;5033328;28;20199;-68
2022/05/22 02:25:23;;;;;;;96.60;91.85;;;12.90;99.90;;;;;;5033929;28;20183;-68
2022/05/22 02:27:49;;;;;;;100.50;95.32;;;12.90;99.90;;;;;;5047716;28;20187;-68
2022/05/22 02:30:19;;;;;;;97.53;92.85;;;12.90;99.90;;;;;;5056014;28;20200;-68
2022/05/22 02:32:45;;;;;;;99.90;94.90;;;12.90;99.90;;;;;;5051893;28;20178;-68
2022/05/22 02:35:13;;;;;;;101.82;96.28;;;12.90;99.90;;;;;;5036279;28;20562;-68
2022/05/22 02:37:46;;;;;;;103.03;98.07;;;12.90;99.90;;;;;;5034572;28;20190;-68
2022/05/22 02:40:14;;;;;;;102.13;97.15;;;12.90;99.90;;;;;;5034180;28;20191;-68
2022/05/22 02:42:48;;;;;;;101.35;96.53;;;12.90;99.90;;;;;;5033326;28;20269;-68
2022/05/22 02:45:17;;;;;;;108.85;103.47;;;12.80;99.90;;;;;;5034512;28;20186;-70
2022/05/22 02:47:43;;;;;;;102.15;97.10;;;12.80;99.90;;;;;;5034206;28;20200;-68
2022/05/22 02:50:10;;;;;;;104.07;99.25;;;12.80;99.90;;;;;;5033412;28;20635;-68
2022/05/22 02:52:36;;;;;;;101.72;96.80;;;12.70;99.90;;;;;;5039506;28;20183;-68
2022/05/22 02:55:02;;;;;;;97.63;92.97;;;12.70;99.90;;;;;;5034040;28;20186;-69
2022/05/22 02:57:27;;;;;;;97.13;92.60;;;12.70;99.90;;;;;;5032273;28;20187;-68
2022/05/22 02:59:55;;;;;;;98.97;94.35;;;12.70;99.90;;;;;;5037722;28;20191;-68
2022/05/22 03:02:21;;;;;;;97.65;93.07;;;12.60;99.90;;;;;;5049032;28;20229;-68
2022/05/22 03:04:47;;;;;;;100.75;95.90;;;12.60;99.90;;;;;;5033561;28;20690;-68
2022/05/22 03:07:15;;;;;;;104.90;100.05;;;12.60;99.90;;;;;;5032565;28;20221;-68
2022/05/22 03:09:43;;;;;;;101.70;96.88;;;12.60;99.90;;;;;;5033648;28;20190;-68
2022/05/22 03:12:18;;;;;;;100.22;95.72;;;12.60;99.90;;;;;;5034019;28;20221;-68
2022/05/22 03:14:49;;;;;;;102.43;97.78;;;12.50;99.90;;;;;;5033372;28;20178;-68
2022/05/22 03:17:15;;;;;;;108.88;103.53;;;12.50;99.90;;;;;;5033795;28;20210;-72
2022/05/22 03:19:41;;;;;;;117.35;111.80;;;12.50;99.90;;;;;;5052072;28;20185;-68
2022/05/22 03:22:08;;;;;;;113.70;108.50;;;12.50;99.90;;;;;;5036336;28;20214;-68
2022/05/22 03:24:34;;;;;;;109.75;104.90;;;12.40;99.90;;;;;;5044592;28;20186;-68
2022/05/22 03:27:05;;;;;;;110.70;105.63;;;12.50;99.90;;;;;;5052302;28;20353;-68
2022/05/22 03:29:31;;;;;;;110.57;105.25;;;12.50;99.90;;;;;;5036682;28;20671;-69
2022/05/22 03:31:57;;;;;;;103.10;98.50;;;12.60;99.90;;;;;;5033283;28;20199;-68
2022/05/22 03:34:23;;;;;;;97.18;92.80;;;12.60;99.90;;;;;;5065526;28;20190;-68
2022/05/22 03:36:48;;;;;;;103.07;98.20;;;12.50;99.90;;;;;;5033964;28;20599;-67
2022/05/22 03:39:14;;;;;;;99.93;95.28;;;12.50;99.90;;;;;;5047254;28;20182;-68
2022/05/22 03:41:41;;;;;;;97.10;92.70;;;12.50;99.90;;;;;;5035527;28;20202;-68
2022/05/22 03:44:07;;;;;;;96.82;92.50;;;12.40;99.90;;;;;;5046564;28;20688;-68
2022/05/22 03:46:33;;;;;;;97.72;93.43;;;12.40;99.90;;;;;;5033520;28;20195;-68
2022/05/22 03:49:00;;;;;;;104.22;99.47;;;12.40;99.90;;;;;;5032291;28;20203;-67
2022/05/22 03:51:26;;;;;;;99.70;94.85;;;12.40;99.90;;;;;;5044263;28;20182;-68
2022/05/22 03:53:53;;;;;;;91.65;86.82;;;12.40;99.90;;;;;;5032033;28;20225;-68
2022/05/22 03:56:20;;;;;;;95.20;90.40;;;12.40;99.90;;;;;;5037614;28;20270;-67
2022/05/22 03:58:46;;;;;;;89.35;84.82;;;12.40;99.90;;;;;;5038151;28;20194;-67
2022/05/22 04:01:13;;;;;;;90.95;86.28;;;12.40;99.90;;;;;;5033399;28;20648;-67
2022/05/22 04:03:39;;;;;;;88.53;84.30;;;12.40;99.90;;;;;;5046050;28;20208;-67
2022/05/22 04:06:07;;;;;;;83.60;79.57;;;12.50;99.90;;;;;;5041825;28;20190;-67
2022/05/22 04:08:33;;;;;;;87.80;83.07;;;12.50;99.90;;;;;;5042280;28;20190;-68
2022/05/22 04:11:06;;;;;;;86.22;81.88;;;12.50;99.90;;;;;;5032785;28;20190;-67
2022/05/22 04:13:32;;;;;;;89.85;84.80;;;12.50;99.90;;;;;;5082204;28;20178;-67
2022/05/22 04:15:58;;;;;;;82.53;78.53;;;12.50;99.90;;;;;;5048926;28;20194;-67
2022/05/22 04:18:23;;;;;;;84.22;80.20;;;12.60;99.90;;;;;;5037016;28;20316;-67
2022/05/22 04:20:49;;;;;;;82.80;78.20;;;12.70;99.90;;;;;;5051203;28;20202;-67
2022/05/22 04:25:59;;;;;;;80.07;76.00;;;12.80;99.90;;;;;;5036561;28;20561;-66
2022/05/22 04:28:27;;;;;;;77.07;73.30;;;12.90;99.90;;;;;;5037225;28;20186;-66
2022/05/22 04:30:53;;;;;;;80.45;76.13;;;13.00;99.90;;;;;;5037347;28;20240;-67
2022/05/22 04:33:19;;;;;;;75.47;70.93;;;13.10;99.90;;;;;;5036387;28;20186;-67
2022/05/22 04:35:44;;;;;;;75.53;71.75;;;13.20;99.90;;;;;;5035380;28;20553;-67
2022/05/22 04:38:11;;;;;;;73.53;69.78;;;13.40;99.90;;;;;;5084054;28;20190;-67
2022/05/22 04:40:38;;;;;;;72.63;68.85;;;13.40;99.90;;;;;;5039515;28;20206;-67
2022/05/22 04:43:05;;;;;;;74.55;70.78;;;13.50;99.90;;;;;;5036450;28;20708;-67
2022/05/22 04:45:32;;;;;;;77.88;73.72;;;13.60;99.90;;;;;;5070730;28;20748;-70
2022/05/22 04:47:57;;;;;;;74.88;71.28;;;13.70;99.90;;;;;;5056163;28;20558;-67
2022/05/22 04:50:24;;;;;;;77.82;73.75;;;13.70;99.90;;;;;;5052502;28;20206;-67
2022/05/22 04:52:49;;;;;;;79.35;74.90;;;13.80;99.90;;;;;;5044184;28;20193;-67
2022/05/22 04:55:15;;;;;;;78.65;74.93;;;13.90;99.90;;;;;;5038405;28;20187;-67
2022/05/22 04:57:41;;;;;;;83.75;79.53;;;14.00;99.90;;;;;;5051488;28;20220;-67
2022/05/22 05:00:09;;;;;;;83.47;79.57;;;14.00;99.90;;;;;;5046175;28;20216;-67
2022/05/22 05:02:36;;;;;;;89.15;85.13;;;14.10;99.90;;;;;;5036290;28;20214;-68
2022/05/22 05:05:02;;;;;;;90.85;86.68;;;14.20;99.90;;;;;;5018311;28;20232;-68
2022/05/22 05:07:28;;;;;;;96.50;92.15;;;14.30;99.90;;;;;;5047134;28;20521;-67
2022/05/22 05:09:53;;;;;;;98.07;93.47;;;14.50;99.90;;;;;;5035121;28;20249;-67
2022/05/22 05:12:19;;;;;;;100.53;95.93;;;14.60;99.90;;;;;;5034803;28;20679;-68
2022/05/22 05:14:46;;;;;;;102.72;97.68;;;14.60;99.90;;;;;;5042824;28;20193;-68
2022/05/22 05:17:17;;;;;;;111.10;105.75;;;14.70;99.90;;;;;;5037023;28;20190;-68
2022/05/22 05:19:43;;;;;;;113.53;108.40;;;14.80;99.90;;;;;;5035853;28;20221;-68
2022/05/22 05:22:11;;;;;;;126.13;120.55;;;15.00;99.90;;;;;;5034200;28;20238;-68
2022/05/22 05:24:40;;;;;;;143.07;136.98;;;15.10;99.90;;;;;;5034407;28;20186;-67
2022/05/22 05:27:06;;;;;;;144.57;138.63;;;15.30;99.90;;;;;;5035680;28;20179;-71
2022/05/22 05:29:34;;;;;;;157.75;150.90;;;15.40;99.90;;;;;;5044399;28;20190;-68
2022/05/22 05:32:00;;;;;;;170.45;162.52;;;15.50;99.90;;;;;;5054447;28;20197;-67
2022/05/22 05:34:25;;;;;;;179.65;172.10;;;15.60;99.90;;;;;;5044072;28;20198;-67
2022/05/22 05:36:51;;;;;;;190.27;182.45;;;15.70;99.90;;;;;;5034555;28;20190;-67
2022/05/22 05:39:17;;;;;;;191.57;183.63;;;15.80;99.90;;;;;;5034670;28;20286;-67
2022/05/22 05:41:43;;;;;;;198.70;190.57;;;15.80;99.90;;;;;;5018308;28;20288;-67
2022/05/22 05:44:09;;;;;;;204.30;196.00;;;15.80;99.90;;;;;;5034931;28;20198;-67
2022/05/22 05:46:36;;;;;;;212.93;203.80;;;15.80;99.90;;;;;;5034340;28;20191;-68
2022/05/22 05:49:04;;;;;;;220.25;210.88;;;15.70;99.90;;;;;;5035602;28;20266;-67
2022/05/22 05:51:30;;;;;;;196.52;187.85;;;15.50;99.90;;;;;;5035527;28;20216;-68
2022/05/22 05:53:56;;;;;;;192.35;183.57;;;15.40;99.90;;;;;;5018577;28;20187;-67
2022/05/22 05:56:22;;;;;;;187.80;179.68;;;15.60;99.90;;;;;;5034258;28;20197;-68
2022/05/22 05:58:48;;;;;;;194.23;185.13;;;15.70;99.90;;;;;;5035105;28;20546;-69
2022/05/22 06:01:15;;;;;;;192.20;184.32;;;15.70;99.90;;;;;;5031977;28;20552;-68
2022/05/22 06:03:41;;;;;;;212.07;203.10;;;15.90;99.90;;;;;;5033990;28;20229;-68
2022/05/22 06:06:08;;;;;;;216.63;207.45;;;15.90;99.90;;;;;;5034845;28;20667;-68
2022/05/22 06:08:37;;;;;;;237.75;228.40;;;16.00;99.90;;;;;;5034708;28;20191;-68
2022/05/22 06:11:02;;;;;;;254.25;244.07;;;16.20;99.90;;;;;;5037357;28;20652;-68
2022/05/22 06:13:28;;;;;;;266.08;255.57;;;16.30;99.90;;;;;;5053700;28;20219;-68
2022/05/22 06:15:54;;;;;;;294.73;282.63;;;16.40;99.90;;;;;;5033685;28;20198;-68
2022/05/22 06:18:20;;;;;;;304.40;292.23;;;16.30;99.90;;;;;;5049102;28;20194;-67
2022/05/22 06:20:46;;;;;;;318.38;304.98;;;16.30;99.90;;;;;;5040049;28;20214;-68
2022/05/22 06:23:12;;;;;;;331.88;318.77;;;16.30;99.90;;;;;;5033648;28;20195;-72
2022/05/22 06:25:44;;;;;;;344.40;330.42;;;16.30;99.90;;;;;;5032986;28;20214;-68
2022/05/22 06:28:11;;;;;;;331.30;317.90;;;16.40;99.90;;;;;;5049153;28;20655;-68
2022/05/22 06:30:37;;;;;;;329.35;316.02;;;16.50;99.90;;;;;;5034042;28;20217;-68
2022/05/22 06:33:14;;;;;;;360.80;346.33;;;16.60;99.90;;;;;;5032928;28;20256;-69
2022/05/22 06:35:42;;;;;;;332.00;318.27;;;16.60;99.90;;;;;;5037053;28;20257;-68
2022/05/22 06:39:49;;;;;;;356.02;341.98;;;16.80;99.90;;;;;;5052353;28;20201;-68
2022/05/22 06:40:54;;;;;;;358.33;344.10;;;16.90;99.90;;;;;;5038024;28;20686;-68
2022/05/22 06:43:20;;;;;;;374.58;359.42;;;17.10;99.90;;;;;;5033262;28;20248;-69
2022/05/22 06:45:51;;;;;;;370.48;355.58;;;17.30;99.90;;;;;;5032837;28;20558;-68
2022/05/22 06:48:18;;;;;;;409.67;393.30;;;17.30;99.90;;;;;;5034019;28;20679;-68
2022/05/22 06:50:44;;;;;;;451.30;432.63;;;17.40;99.90;;;;;;5032156;28;20286;-67
2022/05/22 06:53:09;;;;;;;462.33;442.85;;;17.40;99.90;;;;;;5034441;28;20182;-68
2022/05/22 06:55:35;;;;;;;445.38;427.25;;;17.20;99.90;;;;;;5043150;28;20185;-70
2022/05/22 06:58:01;;;;;;;489.60;467.77;;;17.10;99.90;;;;;;5046197;28;20187;-67
2022/05/22 07:00:27;;;;;;;483.83;463.15;;;17.20;99.90;;;;;;5034155;28;20194;-68
2022/05/22 07:02:53;;;;;;;486.38;465.48;;;17.40;99.90;;;;;;5033679;28;20245;-68
2022/05/22 07:05:20;;;;;;;507.20;484.98;;;17.50;99.90;;;;;;5049845;28;20202;-67
2022/05/22 07:07:47;;;;;;;538.42;514.30;;;17.70;99.90;;;;;;5033588;28;20289;-67
2022/05/22 07:10:13;;;;;;;721.13;682.15;;;18.80;99.90;;;;;;5033495;28;20225;-68
2022/05/22 07:12:39;;;;;;;794.10;748.72;;;20.00;99.90;;;;;;5033211;28;20282;-68
2022/05/22 07:15:06;;;;;;;875.78;821.28;;;21.10;99.90;;;;;;5033850;28;20269;-68
2022/05/22 07:17:31;;;;;;;979.20;911.97;;;22.50;99.90;;;;;;5032224;28;20191;-74
2022/05/22 07:19:57;;;;;;;1999.90;999.90;;;24.60;99.90;;;;;;5041336;28;20201;-70
2022/05/22 07:22:24;;;;;;;1999.90;999.90;;;25.20;99.90;;;;;;5033449;28;20217;-68
2022/05/22 07:24:50;;;;;;;1999.90;999.90;;;25.30;99.90;;;;;;5033476;28;20232;-69
2022/05/22 07:27:16;;;;;;;1999.90;999.90;;;25.10;99.90;;;;;;5032047;28;20189;-69
2022/05/22 07:29:42;;;;;;;1999.90;999.90;;;26.10;99.90;;;;;;5032459;28;20255;-69
2022/05/22 07:32:08;;;;;;;1999.90;999.90;;;26.30;99.90;;;;;;5033646;28;20222;-69
2022/05/22 07:34:35;;;;;;;1999.90;999.90;;;25.90;99.90;;;;;;5033675;28;20214;-70
2022/05/22 07:37:04;;;;;;;1999.90;999.90;;;26.40;99.90;;;;;;5033321;28;20257;-70
2022/05/22 07:39:30;;;;;;;1999.90;999.90;;;25.90;99.90;;;;;;5033543;28;20311;-70
2022/05/22 07:41:55;;;;;;;1999.90;999.90;;;26.30;99.90;;;;;;5026836;28;20311;-70
2022/05/22 07:44:21;;;;;;;1999.90;999.90;;;27.30;99.90;;;;;;5032469;28;20196;-70
2022/05/22 07:46:48;;;;;;;1999.90;999.90;;;27.20;99.90;;;;;;5033524;28;20208;-68
2022/05/22 07:52:08;;;;;;;1999.90;999.90;;;26.80;99.90;;;;;;5045913;28;20318;-69
2022/05/22 07:54:39;;;;;;;1999.90;999.90;;;27.30;99.90;;;;;;5040704;28;20631;-71
2022/05/22 07:57:06;;;;;;;1999.90;999.90;;;27.10;99.90;;;;;;5043593;28;20188;-69
2022/05/22 07:59:38;;;;;;;1999.90;999.90;;;26.60;99.90;;;;;;5036521;28;20186;-69
2022/05/22 08:02:07;;;;;;;1999.90;999.90;;;27.80;99.90;;;;;;5031754;28;20221;-69
2022/05/22 08:04:33;;;;;;;1999.90;999.90;;;27.40;99.90;;;;;;5048921;28;20190;-69
2022/05/22 08:06:59;;;;;;;1999.90;999.90;;;27.10;99.90;;;;;;5040028;28;20253;-69
2022/05/22 08:09:25;;;;;;;1999.90;999.90;;;27.90;99.90;;;;;;5036690;28;20186;-72
2022/05/22 08:11:50;;;;;;;1999.90;999.90;;;28.30;99.90;;;;;;5033270;28;20174;-74
2022/05/22 08:14:16;;;;;;;1999.90;999.90;;;28.80;99.90;;;;;;5048700;28;20185;-74
2022/05/22 08:16:45;;;;;;;1999.90;999.90;;;28.50;99.90;;;;;;5033073;28;20190;-74
2022/05/22 08:19:11;;;;;;;1999.90;999.90;;;29.40;99.90;;;;;;5042698;28;20177;-79
2022/05/22 08:21:40;;;;;;;1999.90;999.90;;;30.40;99.90;;;;;;5041043;28;20320;-72
2022/05/22 08:24:06;;;;;;;1999.90;999.90;;;30.20;99.90;;;;;;5031351;28;20224;-74
2022/05/22 08:26:32;;;;;;;1999.90;999.90;;;29.50;99.90;;;;;;5039841;28;20182;-75
2022/05/22 08:28:58;;;;;;;1999.90;999.90;;;29.30;99.90;;;;;;5022651;28;20194;-74
2022/05/22 08:31:23;;;;;;;1999.90;999.90;;;29.20;99.90;;;;;;5071518;28;20201;-74
2022/05/22 08:33:49;;;;;;;1999.90;999.90;;;29.90;99.90;;;;;;5064448;28;20189;-74
2022/05/22 08:36:14;;;;;;;1999.90;999.90;;;30.00;99.90;;;;;;5031983;28;20772;-74
2022/05/22 08:38:40;;;;;;;1999.90;999.90;;;29.50;99.90;;;;;;5056747;28;20680;-74
2022/05/22 08:41:21;;;;;;;1999.90;999.90;;;29.70;99.90;;;;;;5039509;28;20591;-75
2022/05/22 08:44:00;;;;;;;1999.90;999.90;;;31.10;99.90;;;;;;5034972;28;22020;-74
2022/05/22 08:46:47;;;;;;;1999.90;999.90;;;30.40;99.90;;;;;;5032521;28;20553;-75
2022/05/22 08:49:35;;;;;;;1999.90;999.90;;;29.40;99.90;;;;;;5032145;28;20398;-74
2022/05/22 08:52:34;;;;;;;1999.90;999.90;;;28.90;99.90;;;;;;5032169;28;20605;-75
2022/05/22 08:55:08;;;;;;;1999.90;999.90;;;29.80;99.90;;;;;;5032830;28;20209;-74
2022/05/22 09:00:33;;;;;;;1999.90;999.90;;;28.60;99.90;;;;;;5036795;28;20259;-75
2022/05/22 09:03:09;;;;;;;1999.90;999.90;;;28.90;99.90;;;;;;5036134;28;20613;-74
2022/05/22 09:05:36;;;;;;;1999.90;999.90;;;28.20;99.90;;;;;;5068038;28;20189;-76
2022/05/22 09:08:42;;;;;;;1999.90;999.90;;;28.80;99.90;;;;;;5036012;28;20186;-82
2022/05/22 09:11:47;;;;;;;1999.90;999.90;;;28.90;99.90;;;;;;5034996;28;20273;-80
2022/05/22 09:14:21;;;;;;;1999.90;999.90;;;28.00;99.90;;;;;;5038433;28;20197;-81
2022/05/22 09:16:47;;;;;;;1999.90;999.90;;;29.00;99.90;;;;;;5037584;28;20166;-81
2022/05/22 09:19:23;;;;;;;1999.90;999.90;;;29.80;99.90;;;;;;5044724;28;20273;-81
2022/05/22 09:21:59;;;;;;;1999.90;999.90;;;30.30;99.90;;;;;;5052138;28;20207;-80
2022/05/22 09:24:43;;;;;;;1999.90;999.90;;;28.90;99.90;;;;;;5050372;28;20182;-79
2022/05/22 09:27:17;;;;;;;1999.90;999.90;;;28.00;99.90;;;;;;5047499;28;20643;-79
2022/05/22 09:30:04;;;;;;;1999.90;999.90;;;27.20;99.90;;;;;;5053558;28;20639;-79
2022/05/22 09:32:39;;;;;;;1999.90;999.90;;;25.90;99.90;;;;;;5038118;28;20209;-79
2022/05/22 09:35:37;;;;;;;1999.90;999.90;;;25.10;99.90;;;;;;5069429;28;20643;-79
2022/05/22 09:38:35;;;;;;;1999.90;999.90;;;24.60;99.90;;;;;;5045517;28;20536;-78
2022/05/22 09:41:10;;;;;;;1999.90;999.90;;;24.30;99.90;;;;;;5035768;28;20214;-78
2022/05/22 09:44:03;;;;;;;1999.90;999.90;;;24.50;99.90;;;;;;5035828;28;20189;-74
2022/05/22 09:47:04;;;;;;;1999.90;999.90;;;24.60;99.90;;;;;;5036634;28;20194;-75
2022/05/22 09:49:38;;;;;;;1999.90;999.90;;;24.50;99.90;;;;;;5036847;28;20178;-77
2022/05/22 09:52:28;;;;;;;1999.90;999.90;;;24.50;99.90;;;;;;5036778;28;20208;-76
2022/05/22 09:55:11;;;;;;;1999.90;999.90;;;24.20;99.90;;;;;;5035619;28;20187;-78
2022/05/22 09:57:55;;;;;;;1999.90;999.90;;;23.80;99.90;;;;;;5033755;28;20187;-78
2022/05/22 10:00:37;;;;;;;1999.90;999.90;;;23.60;99.90;;;;;;5035344;28;20191;-78
2022/05/22 10:03:21;;;;;;;1999.90;999.90;;;23.40;99.90;;;;;;5035558;28;20293;-79
2022/05/22 10:06:32;;;;;;;1999.90;999.90;;;23.40;99.90;;;;;;5035313;28;20205;-78
2022/05/22 10:09:28;;;;;;;1999.90;999.90;;;22.60;99.90;;;;;;5022704;28;20210;-78
2022/05/22 10:12:03;;;;;;;1999.90;999.90;;;22.80;99.90;;;;;;5034960;28;20197;-78
2022/05/22 10:14:42;;;;;;;1999.90;999.90;;;22.60;99.90;;;;;;5035345;28;20277;-77
2022/05/22 10:17:32;;;;;;;1999.90;999.90;;;22.40;99.90;;;;;;5034718;28;20191;-75
2022/05/22 10:20:21;;;;;;;1999.90;999.90;;;22.50;99.90;;;;;;5072923;28;20548;-77
2022/05/22 10:23:16;;;;;;;1999.90;999.90;;;22.60;99.90;;;;;;5039605;28;20213;-77
2022/05/22 10:26:09;;;;;;;1999.90;999.90;;;23.00;99.90;;;;;;5033303;28;20206;-77
2022/05/22 10:28:58;;;;;;;1999.90;999.90;;;23.10;99.90;;;;;;5035014;28;20202;-75
2022/05/22 10:31:36;;;;;;;1999.90;999.90;;;23.20;99.90;;;;;;5034390;28;20739;-77
2022/05/22 10:34:34;;;;;;;1999.90;999.90;;;23.40;99.90;;;;;;5034624;28;20547;-80
2022/05/22 10:37:08;;;;;;;1999.90;999.90;;;23.60;99.90;;;;;;5029248;28;20226;-79
2022/05/22 10:39:33;;;;;;;1999.90;999.90;;;23.70;99.90;;;;;;5034661;28;20183;-77
2022/05/22 10:44:58;;;;;;;1999.90;999.90;;;23.80;99.90;;;;;;5046860;28;20278;-80
2022/05/22 10:47:29;;;;;;;1999.90;999.90;;;23.80;99.90;;;;;;5037483;28;20227;-76
2022/05/22 10:49:56;;;;;;;1999.90;999.90;;;23.50;99.90;;;;;;5066685;28;20199;-82
2022/05/22 10:52:25;;;;;;;1999.90;999.90;;;23.60;99.90;;;;;;5033280;28;20195;-80
2022/05/22 10:54:53;;;;;;;1999.90;999.90;;;23.40;99.90;;;;;;5042174;28;20719;-78
2022/05/22 10:57:33;;;;;;;1999.90;999.90;;;23.30;99.90;;;;;;5042120;28;20182;-77
2022/05/22 11:00:16;;;;;;;1999.90;999.90;;;23.20;99.90;;;;;;5034321;28;20240;-75
2022/05/22 11:02:42;;;;;;;1999.90;999.90;;;23.20;99.90;;;;;;5033265;28;20620;-74
2022/05/22 11:05:34;;;;;;;1999.90;999.90;;;23.10;99.90;;;;;;5033794;28;20221;-73
2022/05/22 11:08:00;;;;;;;1999.90;999.90;;;23.20;99.90;;;;;;5064296;28;20285;-76
2022/05/22 11:10:29;;;;;;;1999.90;999.90;;;23.00;99.90;;;;;;5040594;28;20274;-72
2022/05/22 11:13:10;;;;;;;1999.90;999.90;;;22.70;99.90;;;;;;5033739;28;20304;-75
2022/05/22 11:15:44;;;;;;;1999.90;999.90;;;22.10;99.90;;;;;;5033944;28;20174;-74
2022/05/22 11:18:17;;;;;;;1999.90;999.90;;;22.00;99.90;;;;;;5039667;28;20198;-75
2022/05/22 11:21:02;;;;;;;1999.90;999.90;;;22.10;99.90;;;;;;5041854;28;20194;-77
2022/05/22 11:23:36;;;;;;;1999.90;999.90;;;22.40;99.90;;;;;;5033866;28;20268;-76
2022/05/22 11:26:34;;;;;;;1999.90;999.90;;;22.10;99.90;;;;;;5032370;28;20674;-74
2022/05/22 11:29:11;;;;;;;1999.90;999.90;;;22.30;99.90;;;;;;5067663;28;20185;-73
2022/05/22 11:31:56;;;;;;;1999.90;999.90;;;22.20;99.90;;;;;;5052353;28;20186;-76
2022/05/22 11:34:37;;;;;;;1999.90;999.90;;;21.70;99.90;;;;;;5041480;28;20182;-69
2022/05/22 11:37:03;;;;;;;1999.90;999.90;;;21.80;99.90;;;;;;5032528;28;20540;-71
2022/05/22 11:39:40;;;;;;;1999.90;999.90;;;22.20;99.90;;;;;;5033248;28;20191;-77
2022/05/22 11:42:18;;;;;;;1999.90;999.90;;;22.10;99.90;;;;;;5033215;28;20271;-76
2022/05/22 11:44:53;;;;;;;1999.90;999.90;;;22.00;99.90;;;;;;5032170;28;20195;-75
2022/05/22 11:47:37;;;;;;;1999.90;999.90;;;22.00;99.90;;;;;;5047187;28;20700;-72
2022/05/22 11:50:15;;;;;;;1999.90;999.90;;;22.20;99.90;;;;;;5034523;28;20187;-76
2022/05/22 11:52:55;;;;;;;1999.90;999.90;;;22.40;99.90;;;;;;5031912;28;20643;-77
2022/05/22 11:56:07;;;;;;;1999.90;999.90;;;22.40;99.90;;;;;;5038738;28;20248;-69
2022/05/22 11:59:07;;;;;;;1999.90;999.90;;;22.20;99.90;;;;;;5031670;28;20205;-67
2022/05/22 12:01:45;;;;;;;1999.90;999.90;;;22.10;99.90;;;;;;5048153;28;20214;-67
2022/05/22 12:04:22;;;;;;;1999.90;999.90;;;21.90;99.90;;;;;;5031749;28;20194;-66
2022/05/22 12:07:24;;;;;;;1999.90;999.90;;;22.10;99.90;;;;;;5036854;28;20193;-69
2022/05/22 12:10:17;;;;;;;1999.90;999.90;;;22.20;99.90;;;;;;5043050;28;20182;-68
2022/05/22 12:12:54;;;;;;;1999.90;999.90;;;22.20;99.90;;;;;;5064988;28;20631;-66
2022/05/22 12:15:38;;;;;;;1999.90;999.90;;;22.30;99.90;;;;;;5032905;28;20213;-66
2022/05/22 12:18:33;;;;;;;1999.90;999.90;;;22.20;99.90;;;;;;5033252;28;20643;-66
2022/05/22 12:21:14;;;;;;;1999.90;999.90;;;22.50;99.90;;;;;;5032626;28;20206;-67
2022/05/22 12:23:52;;;;;;;1999.90;999.90;;;22.80;99.90;;;;;;5032876;28;20240;-66
2022/05/22 12:26:18;;;;;;;1999.90;999.90;;;22.90;99.90;;;;;;5033023;28;20190;-66
2022/05/22 12:29:07;;;;;;;1999.90;999.90;;;22.90;99.90;;;;;;5043358;28;20178;-67
2022/05/22 12:31:56;;;;;;;1999.90;999.90;;;22.60;99.90;;;;;;5065404;28;20591;-67
2022/05/22 12:34:51;;;;;;;1999.90;999.90;;;22.40;99.90;;;;;;5036517;28;20179;-67
2022/05/22 12:37:38;;;;;;;1999.90;999.90;;;22.60;99.90;;;;;;5045138;28;20681;-67
2022/05/22 12:40:36;;;;;;;1999.90;999.90;;;22.70;99.90;;;;;;5055732;28;20216;-66
2022/05/22 12:43:05;;;;;;;1999.90;999.90;;;22.90;99.90;;;;;;5036681;28;20655;-67
2022/05/22 12:45:32;;;;;;;1999.90;999.90;;;22.70;99.90;;;;;;5042152;28;20263;-67